Time;durP1;ratioP1;P1;durP2;ratioP2;P2;SDS_P1;SDS_P2;PMS_P1;PMS_P2;Temp;Humidity;BMP_temperature;BMP_pressure;BME280_temperature;BME280_humidity;BME280_pressure;Samples;Min_cycle;Max_cycle;Signal;HPM_P1;HPM_P2
2021/12/17 00:05:06;;;;;;;25.23;14.20;;;;;;;-0.73;100.00;91436.91;5135392;27;20042;-68
2021/12/17 00:07:35;;;;;;;30.45;17.08;;;;;;;-0.68;100.00;91433.59;5135241;27;20101;-68
2021/12/17 00:10:08;;;;;;;23.55;14.50;;;;;;;-0.83;100.00;91428.06;5134858;27;20041;-68
2021/12/17 00:12:34;;;;;;;27.85;16.30;;;;;;;-0.72;100.00;91432.47;5134909;27;20493;-68
2021/12/17 00:14:59;;;;;;;31.15;16.77;;;;;;;-0.87;100.00;91434.75;5134742;27;20047;-68
2021/12/17 00:17:31;;;;;;;27.27;15.50;;;;;;;-0.94;100.00;91425.22;5134732;27;20031;-68
2021/12/17 00:49:33;;;;;;;31.13;16.20;;;;;;;-0.91;100.00;91452.72;5134120;27;20221;-69
2021/12/17 00:52:01;;;;;;;31.08;14.45;;;;;;;-1.00;100.00;91452.22;5133312;27;20054;-68
2021/12/17 00:54:38;;;;;;;27.52;15.35;;;;;;;-1.04;100.00;91458.94;5134117;27;20031;-68
2021/12/17 00:57:17;;;;;;;26.02;13.43;;;;;;;-1.09;100.00;91453.59;5134085;27;20480;-68
2021/12/17 00:59:51;;;;;;;23.27;12.65;;;;;;;-1.18;100.00;91441.09;5133889;27;20076;-68
2021/12/17 01:02:24;;;;;;;22.98;12.18;;;;;;;-1.17;100.00;91451.31;5133782;27;20080;-68
2021/12/17 01:04:52;;;;;;;;;;;;;;;-1.14;100.00;91453.47;5134634;27;20804;-68
2021/12/17 01:07:22;;;;;;;22.88;12.50;;;;;;;-1.11;100.00;91460.84;5133921;27;19908;-68
2021/12/17 01:09:49;;;;;;;27.20;13.88;;;;;;;-1.09;100.00;91452.81;5133200;27;20118;-68
2021/12/17 01:12:16;;;;;;;27.48;14.80;;;;;;;-1.09;100.00;91451.00;5133725;27;20027;-69
2021/12/17 01:14:42;;;;;;;32.67;16.02;;;;;;;-1.07;100.00;91451.56;5133508;27;20041;-68
2021/12/17 01:17:10;;;;;;;31.10;15.98;;;;;;;-1.09;100.00;91456.22;5133563;27;20051;-68
2021/12/17 01:22:28;;;;;;;32.63;16.65;;;;;;;-1.11;100.00;91450.41;5133758;27;20117;-68
2021/12/17 01:25:03;;;;;;;33.83;16.45;;;;;;;-1.06;100.00;91457.56;5133517;27;20038;-69
2021/12/17 01:35:43;;;;;;;31.67;17.92;;;;;;;-0.86;100.00;91446.78;5133437;27;20444;-69
2021/12/17 01:43:43;;;;;;;28.90;16.15;;;;;;;-0.75;100.00;91417.28;5133046;27;20441;-69
2021/12/17 01:46:11;;;;;;;29.55;16.73;;;;;;;-0.63;100.00;91421.47;5132905;27;20501;-68
2021/12/17 01:49:27;;;;;;;31.48;17.65;;;;;;;-0.49;100.00;91418.59;5133041;27;20028;-69
2021/12/17 02:00:11;;;;;;;25.45;13.05;;;;;;;-0.36;100.00;91390.38;5132820;27;20517;-69
2021/12/17 02:02:43;;;;;;;21.13;12.18;;;;;;;-0.34;100.00;91396.16;5132761;27;20019;-69
2021/12/17 02:05:13;;;;;;;24.60;13.45;;;;;;;-0.49;100.00;91390.63;5132829;27;20481;-68
2021/12/17 02:07:40;;;;;;;21.77;12.43;;;;;;;-0.55;100.00;91396.00;5132733;27;20027;-68
2021/12/17 02:32:18;;;;;;;28.65;15.13;;;;;;;-1.20;100.00;91373.47;5089152;28;20111;-69
2021/12/17 02:37:30;;;;;;;27.73;15.43;;;;;;;-1.14;100.00;91380.38;5132201;27;20068;-68
2021/12/17 02:47:42;;;;;;;27.60;15.70;;;;;;;-1.72;100.00;91390.75;5131971;27;20079;-69
2021/12/17 02:50:11;;;;;;;49.05;20.58;;;;;;;-1.73;100.00;91389.16;5131905;27;20502;-69
2021/12/17 02:52:38;;;;;;;40.97;18.10;;;;;;;-1.74;100.00;91393.56;5132009;27;20027;-69
2021/12/17 02:55:07;;;;;;;37.10;16.38;;;;;;;-1.68;100.00;91400.50;5132162;27;20034;-69
2021/12/17 02:57:35;;;;;;;31.67;15.35;;;;;;;-1.62;100.00;91399.59;5131939;27;20476;-69
2021/12/17 03:00:05;;;;;;;24.23;12.82;;;;;;;-1.60;100.00;91394.97;5131801;27;20038;-69
2021/12/17 03:02:32;;;;;;;20.10;12.02;;;;;;;-1.45;100.00;91396.34;5131503;27;20047;-69
2021/12/17 03:04:58;;;;;;;27.63;15.02;;;;;;;-1.42;100.00;91381.06;5132197;27;20027;-69
2021/12/17 03:07:24;;;;;;;27.65;15.32;;;;;;;-1.34;100.00;91385.13;5131852;27;20435;-69
2021/12/17 03:12:34;;;;;;;26.92;14.55;;;;;;;-1.28;100.00;91389.44;5131839;27;20477;-69
2021/12/17 03:23:31;;;;;;;14.68;8.50;;;;;;;-1.12;100.00;91396.59;5135804;27;20130;-69
2021/12/17 03:26:01;;;;;;;14.02;7.97;;;;;;;-1.13;100.00;91397.63;5135790;27;20039;-69
2021/12/17 03:28:27;;;;;;;13.98;8.20;;;;;;;-1.18;100.00;91396.72;5134448;27;20472;-68
2021/12/17 03:30:53;;;;;;;17.42;9.32;;;;;;;-1.11;100.00;91395.56;5135695;27;20062;-69
2021/12/17 03:33:20;;;;;;;15.90;8.75;;;;;;;-1.17;100.00;91387.88;5135721;27;20455;-69
2021/12/17 03:35:46;;;;;;;14.55;8.38;;;;;;;-1.14;100.00;91374.34;5135572;27;20428;-68
2021/12/17 03:38:12;;;;;;;15.80;9.82;;;;;;;-1.14;100.00;91388.19;5135673;27;20118;-68
2021/12/17 03:40:40;;;;;;;14.45;8.07;;;;;;;-1.13;100.00;91383.78;5134179;27;20035;-68
2021/12/17 03:43:11;;;;;;;14.45;8.70;;;;;;;-1.16;100.00;91382.41;5135487;27;20039;-68
2021/12/17 03:45:38;;;;;;;13.02;7.22;;;;;;;-1.20;100.00;91389.13;5135535;27;20122;-68
2021/12/17 03:48:04;;;;;;;14.55;8.00;;;;;;;-1.26;100.00;91374.38;5135387;27;20035;-68
2021/12/17 03:50:33;;;;;;;11.15;6.75;;;;;;;-1.24;100.00;91383.56;5135290;27;20054;-69
2021/12/17 03:52:59;;;;;;;11.65;7.30;;;;;;;-1.28;100.00;91382.41;5135325;27;20035;-69
2021/12/17 03:55:25;;;;;;;14.13;7.80;;;;;;;-1.30;100.00;91378.44;5135291;27;20484;-69
2021/12/17 03:57:50;;;;;;;13.35;7.63;;;;;;;-1.34;100.00;91377.31;5135188;27;20077;-69
2021/12/17 04:00:16;;;;;;;15.85;9.50;;;;;;;-1.30;100.00;91387.06;5135082;27;20074;-69
2021/12/17 04:02:42;;;;;;;20.13;13.07;;;;;;;-1.26;100.00;91384.81;5135041;27;20035;-69
2021/12/17 04:05:07;;;;;;;19.02;10.93;;;;;;;-1.35;100.00;91380.94;5135160;27;20056;-70
2021/12/17 04:07:34;;;;;;;15.73;9.32;;;;;;;-1.34;100.00;91388.53;5135043;27;20504;-70
2021/12/17 04:09:59;;;;;;;15.82;9.00;;;;;;;-1.31;100.00;91393.31;5119707;27;20501;-69
2021/12/17 04:12:39;;;;;;;18.00;10.52;;;;;;;-1.33;100.00;91378.91;5112938;28;20039;-69
2021/12/17 04:15:05;;;;;;;21.60;10.48;;;;;;;-1.27;100.00;91394.44;5113790;28;20485;-68
2021/12/17 04:17:40;;;;;;;22.23;11.20;;;;;;;-1.38;100.00;91394.44;5114051;28;20058;-73
2021/12/17 04:20:06;;;;;;;19.80;10.85;;;;;;;-1.51;100.00;91398.03;5113707;28;20049;-67
2021/12/17 04:22:32;;;;;;;20.20;10.82;;;;;;;-1.59;100.00;91395.75;5113712;28;20135;-67
2021/12/17 04:24:58;;;;;;;19.70;10.10;;;;;;;-1.68;100.00;91384.06;5113406;28;20032;-67
2021/12/17 04:27:23;;;;;;;21.60;12.73;;;;;;;-1.70;100.00;91371.25;5112431;28;20047;-67
2021/12/17 04:29:49;;;;;;;25.50;13.85;;;;;;;-1.72;100.00;91375.91;5113782;28;20063;-67
2021/12/17 04:32:14;;;;;;;25.40;13.05;;;;;;;-1.64;100.00;91362.53;5113629;28;20031;-68
2021/12/17 04:34:40;;;;;;;27.25;15.00;;;;;;;-1.51;100.00;91375.38;5116165;27;20085;-68
2021/12/17 04:37:05;;;;;;;37.17;20.67;;;;;;;-1.39;100.00;91364.16;5124054;27;20084;-68
2021/12/17 04:39:31;;;;;;;32.20;18.23;;;;;;;-1.34;100.00;91362.44;5121578;27;20181;-67
2021/12/17 04:42:02;;;;;;;30.67;17.13;;;;;;;-1.11;100.00;91359.03;5123918;27;20080;-67
2021/12/17 04:44:32;;;;;;;24.23;14.45;;;;;;;-0.98;100.00;91358.78;5124260;27;20099;-66
2021/12/17 04:57:53;;;;;;;30.92;16.77;;;;;;;-0.92;100.00;91344.03;5113294;28;20045;-67
2021/12/17 05:00:23;;;;;;;42.35;20.67;;;;;;;-1.08;100.00;91345.53;5113034;28;20043;-68
2021/12/17 05:02:52;;;;;;;18.98;11.43;;;;;;;-1.17;100.00;91349.50;5113139;28;20405;-67
2021/12/17 05:05:20;;;;;;;19.90;11.73;;;;;;;-1.11;100.00;91353.00;5113214;28;20058;-66
2021/12/17 05:08:12;;;;;;;41.75;24.45;;;;;;;-1.05;100.00;91355.53;5113154;28;20040;-64
2021/12/17 05:18:41;;;;;;;28.25;15.98;;;;;;;-0.68;100.00;91326.50;5113242;28;20050;-66
2021/12/17 05:21:09;;;;;;;93.37;50.03;;;;;;;-0.68;100.00;91314.22;5113194;28;20093;-64
2021/12/17 05:23:40;;;;;;;56.75;31.75;;;;;;;-0.73;100.00;91308.91;5112868;28;20032;-65
2021/12/17 05:26:09;;;;;;;59.40;33.08;;;;;;;-0.65;100.00;91305.13;5112791;28;20040;-65
2021/12/17 05:28:36;;;;;;;51.00;27.30;;;;;;;-0.73;100.00;91295.06;5112860;28;20484;-65
2021/12/17 05:31:01;;;;;;;31.77;17.77;;;;;;;-0.67;100.00;91286.28;5111527;28;20097;-64
2021/12/17 05:33:28;;;;;;;25.73;16.10;;;;;;;-0.55;100.00;91294.88;5112845;28;20471;-64
2021/12/17 05:35:54;;;;;;;23.13;14.48;;;;;;;-0.43;100.00;91300.88;5112742;28;20119;-64
2021/12/17 05:38:22;;;;;;;21.67;13.40;;;;;;;-0.36;100.00;91309.34;5112333;28;20108;-64
2021/12/17 05:40:49;;;;;;;24.27;14.60;;;;;;;-0.23;100.00;91315.34;5112613;28;20032;-64
2021/12/17 05:43:16;;;;;;;23.38;13.18;;;;;;;-0.17;100.00;91314.38;5112526;28;20036;-65
2021/12/17 05:48:21;;;;;;;29.60;13.73;;;;;;;-0.44;100.00;91322.00;5112574;28;20035;-65
2021/12/17 05:50:49;;;;;;;27.90;13.93;;;;;;;-0.37;100.00;91323.44;5112373;28;20046;-64
2021/12/17 05:53:15;;;;;;;19.85;9.52;;;;;;;-0.45;100.00;91329.06;5112387;28;20040;-64
2021/12/17 05:55:41;;;;;;;23.65;14.40;;;;;;;-0.43;100.00;91339.28;5112268;28;20088;-65
2021/12/17 05:58:08;;;;;;;20.00;9.43;;;;;;;-0.45;100.00;91325.66;5112341;28;20085;-64
2021/12/17 06:00:35;;;;;;;19.00;10.45;;;;;;;-0.50;100.00;91323.72;5112192;28;20110;-64
2021/12/17 06:03:02;;;;;;;19.52;11.35;;;;;;;-0.49;100.00;91322.69;5112226;28;20067;-64
2021/12/17 06:05:29;;;;;;;18.63;11.20;;;;;;;-0.54;100.00;91309.53;5112241;28;20118;-64
2021/12/17 06:07:55;;;;;;;29.83;15.32;;;;;;;-0.47;100.00;91307.59;5112143;28;20032;-64
2021/12/17 06:10:21;;;;;;;23.30;15.00;;;;;;;-0.49;100.00;91316.66;5111963;28;20055;-64
2021/12/17 06:12:47;;;;;;;20.85;13.00;;;;;;;-0.38;100.00;91318.47;5112093;28;20038;-64
2021/12/17 06:15:16;;;;;;;17.33;11.18;;;;;;;-0.41;100.00;91318.94;5111908;28;20048;-64
2021/12/17 06:17:43;;;;;;;18.23;11.23;;;;;;;-0.42;100.00;91320.75;5111903;28;20039;-64
2021/12/17 06:20:10;;;;;;;20.23;11.00;;;;;;;-0.45;100.00;91318.59;5111922;28;20043;-64
2021/12/17 06:22:36;;;;;;;15.32;9.65;;;;;;;-0.46;100.00;91306.56;5111858;28;20050;-65
2021/12/17 06:25:04;;;;;;;19.17;10.75;;;;;;;-0.35;100.00;91304.91;5111894;28;20063;-64
2021/12/17 06:27:30;;;;;;;18.35;11.30;;;;;;;-0.20;100.00;91320.09;5111881;28;20045;-64
2021/12/17 06:29:55;;;;;;;23.63;15.18;;;;;;;-0.05;100.00;91310.69;5111606;28;20118;-64
2021/12/17 06:32:21;;;;;;;26.48;15.98;;;;;;;-0.01;100.00;91317.03;5111723;28;20114;-65
2021/12/17 06:34:48;;;;;;;30.40;19.15;;;;;;;0.15;100.00;91315.47;5111745;28;20032;-64
2021/12/17 06:37:17;;;;;;;30.08;18.70;;;;;;;0.26;100.00;91332.94;5111663;28;20043;-64
2021/12/17 06:39:43;;;;;;;47.45;27.65;;;;;;;0.30;100.00;91334.03;5111509;28;20035;-64
2021/12/17 06:42:10;;;;;;;25.42;17.00;;;;;;;0.54;100.00;91352.22;5111497;28;20111;-65
2021/12/17 06:44:37;;;;;;;29.73;16.02;;;;;;;0.46;100.00;91361.25;5111617;27;20036;-64
2021/12/17 06:49:49;;;;;;;18.40;11.63;;;;;;;-0.03;100.00;91358.31;5111161;28;20168;-64
2021/12/17 06:55:20;;;;;;;32.35;14.70;;;;;;;-0.08;100.00;91371.31;5111666;28;20046;-64
2021/12/17 07:06:03;;;;;;;20.83;9.63;;;;;;;0.29;100.00;91382.16;5111163;28;20047;-64
2021/12/17 07:40:31;;;;;;;20.52;12.88;;;;;;;1.72;100.00;91339.69;5111169;28;20113;-65
2021/12/17 07:42:57;;;;;;;27.38;17.33;;;;;;;1.74;100.00;91332.41;5110942;28;20043;-64
2021/12/17 07:45:22;;;;;;;34.65;22.63;;;;;;;1.84;100.00;91323.84;5110995;28;20032;-65
2021/12/17 07:47:48;;;;;;;37.28;23.45;;;;;;;1.86;100.00;91327.78;5110918;28;20119;-65
2021/12/17 07:50:14;;;;;;;44.00;29.02;;;;;;;2.04;100.00;91335.31;5110772;28;20039;-65
2021/12/17 07:52:40;;;;;;;37.55;25.73;;;;;;;2.17;100.00;91336.78;5110883;28;20481;-65
2021/12/17 07:55:05;;;;;;;33.58;23.23;;;;;;;2.28;100.00;91327.16;5110905;28;20389;-64
2021/12/17 07:57:31;;;;;;;28.23;18.33;;;;;;;2.20;100.00;91322.34;5110842;28;20027;-64
2021/12/17 07:59:56;;;;;;;25.67;17.90;;;;;;;2.39;100.00;91326.22;5110677;28;20023;-65
2021/12/17 08:02:22;;;;;;;30.38;20.10;;;;;;;2.66;100.00;91315.66;5112907;28;20055;-65
2021/12/17 08:04:47;;;;;;;26.02;18.25;;;;;;;2.83;100.00;91324.19;5114520;28;20028;-64
2021/12/17 08:07:13;;;;;;;40.10;24.85;;;;;;;2.94;100.00;91306.69;5114517;28;20058;-64
2021/12/17 08:09:40;;;;;;;55.13;33.80;;;;;;;3.37;100.00;91320.59;5114447;28;20027;-64
2021/12/17 08:12:08;;;;;;;43.65;26.85;;;;;;;3.24;100.00;91320.00;5114356;28;20504;-64
2021/12/17 08:14:33;;;;;;;28.83;20.85;;;;;;;3.24;100.00;91312.13;5114018;28;20039;-64
2021/12/17 08:17:27;;;;;;;33.38;20.30;;;;;;;3.43;100.00;91325.63;5114260;28;20034;-64
2021/12/17 08:25:18;;;;;;;24.17;16.60;;;;;;;3.56;100.00;91313.84;5114376;28;20029;-64
2021/12/17 08:30:29;;;;;;;12.18;8.73;;;;;;;2.94;100.00;91314.56;5113922;28;20039;-64
2021/12/17 08:32:55;;;;;;;15.68;8.07;;;;;;;2.74;100.00;91303.91;5113995;28;20035;-65
2021/12/17 08:35:21;;;;;;;6.43;4.07;;;;;;;2.75;100.00;91305.50;5113897;28;20069;-64
2021/12/17 08:37:47;;;;;;;5.40;4.28;;;;;;;2.62;100.00;91307.50;5113890;28;20103;-65
2021/12/17 08:40:13;;;;;;;5.95;4.80;;;;;;;2.41;100.00;91308.38;5113780;27;20088;-64
2021/12/17 08:42:38;;;;;;;7.88;5.20;;;;;;;2.30;100.00;91315.38;5113742;28;20031;-64
2021/12/17 08:45:07;;;;;;;20.52;11.95;;;;;;;2.16;100.00;91322.06;5113670;28;20028;-64
2021/12/17 08:47:33;;;;;;;6.75;4.95;;;;;;;2.00;100.00;91323.75;5113570;28;20454;-65
2021/12/17 08:50:04;;;;;;;14.00;9.32;;;;;;;1.88;100.00;91320.47;5113319;28;20046;-65
2021/12/17 08:52:30;;;;;;;24.08;12.82;;;;;;;1.89;100.00;91319.41;5113504;28;20023;-65
2021/12/17 08:54:55;;;;;;;7.65;6.32;;;;;;;1.68;100.00;91318.41;5113635;28;20032;-65
2021/12/17 08:57:21;;;;;;;11.50;7.82;;;;;;;1.69;100.00;91306.09;5113539;28;20032;-65
2021/12/17 08:59:46;;;;;;;12.88;9.75;;;;;;;1.68;100.00;91305.31;5113441;28;20028;-65
2021/12/17 09:02:12;;;;;;;5.28;4.05;;;;;;;1.75;100.00;91284.94;5113328;28;20019;-65
2021/12/17 09:04:37;;;;;;;14.65;9.43;;;;;;;1.75;100.00;91286.78;5113421;27;20063;-65
2021/12/17 09:07:03;;;;;;;5.70;4.68;;;;;;;1.82;100.00;91274.25;5113302;28;20023;-65
2021/12/17 09:09:29;;;;;;;6.43;4.47;;;;;;;1.98;100.00;91286.47;5113274;28;20079;-65
2021/12/17 09:11:54;;;;;;;14.57;7.78;;;;;;;2.25;100.00;91283.06;5113251;28;20028;-64
2021/12/17 09:14:20;;;;;;;6.57;5.10;;;;;;;2.40;100.00;91277.94;5112271;28;20057;-64
2021/12/17 09:16:48;;;;;;;6.82;5.50;;;;;;;2.20;100.00;91269.88;5113022;28;20028;-64
2021/12/17 09:19:13;;;;;;;5.75;4.70;;;;;;;2.33;100.00;91274.69;5112945;28;20526;-64
2021/12/17 09:21:39;;;;;;;7.10;4.70;;;;;;;2.31;100.00;91271.53;5113000;28;20049;-65
2021/12/17 09:24:05;;;;;;;8.85;6.18;;;;;;;2.39;100.00;91271.09;5113009;28;20039;-65
2021/12/17 09:26:33;;;;;;;8.52;4.97;;;;;;;2.31;100.00;91255.78;5112998;28;20042;-65
2021/12/17 09:28:59;;;;;;;7.88;5.20;;;;;;;2.43;100.00;91258.25;5112814;27;20035;-65
2021/12/17 09:31:25;;;;;;;5.63;4.30;;;;;;;2.49;100.00;91263.28;5112909;28;20161;-65
2021/12/17 09:33:50;;;;;;;5.05;3.45;;;;;;;2.52;100.00;91251.47;5112837;28;20115;-65
2021/12/17 09:36:18;;;;;;;6.10;5.18;;;;;;;2.55;100.00;91249.16;5113169;28;20100;-65
2021/12/17 09:38:46;;;;;;;7.05;5.38;;;;;;;2.64;100.00;91234.50;5112629;28;20031;-65
2021/12/17 09:41:11;;;;;;;9.80;6.10;;;;;;;2.54;100.00;91246.78;5112879;28;20031;-65
2021/12/17 09:43:37;;;;;;;9.10;6.28;;;;;;;2.34;100.00;91244.78;5112602;28;20492;-65
2021/12/17 09:46:06;;;;;;;5.00;4.50;;;;;;;2.33;100.00;91243.19;5112470;28;20166;-65
2021/12/17 09:48:33;;;;;;;10.75;8.05;;;;;;;2.39;100.00;91232.50;5112354;27;20019;-65
2021/12/17 09:51:01;;;;;;;7.50;5.78;;;;;;;2.38;100.00;91230.13;5112475;28;20032;-65
2021/12/17 09:53:27;;;;;;;7.57;5.97;;;;;;;2.47;100.00;91225.97;5112522;28;20099;-65
2021/12/17 09:55:53;;;;;;;7.20;5.72;;;;;;;2.29;100.00;91215.88;5111078;28;20126;-64
2021/12/17 09:58:18;;;;;;;7.95;6.30;;;;;;;2.16;100.00;91216.28;5112248;28;20024;-64
2021/12/17 10:00:44;;;;;;;9.00;5.70;;;;;;;2.09;100.00;91221.75;5112279;28;20507;-64
2021/12/17 10:03:10;;;;;;;8.40;5.85;;;;;;;2.06;100.00;91228.31;5112188;28;20032;-64
2021/12/17 10:05:38;;;;;;;11.43;7.20;;;;;;;2.06;100.00;91228.31;5112210;27;20119;-64
2021/12/17 10:08:10;;;;;;;8.13;5.47;;;;;;;2.00;100.00;91218.78;5112013;28;20037;-64
2021/12/17 10:11:04;;;;;;;7.30;6.07;;;;;;;2.08;100.00;91222.81;5112125;28;20459;-64
2021/12/17 10:13:30;;;;;;;;;;;;;;;2.01;100.00;91214.34;5112397;28;20038;-64
2021/12/17 10:16:01;;;;;;;7.75;6.35;;;;;;;1.87;100.00;91218.41;5111800;28;19919;-64
2021/12/17 10:18:46;;;;;;;8.20;5.90;;;;;;;1.87;100.00;91202.66;5111770;28;20027;-65
2021/12/17 10:21:21;;;;;;;9.02;5.68;;;;;;;1.88;100.00;91209.50;5111828;28;20062;-65
2021/12/17 10:23:47;;;;;;;11.18;7.25;;;;;;;1.83;100.00;91207.63;5111810;28;20077;-64
2021/12/17 10:26:17;;;;;;;16.58;11.93;;;;;;;2.03;100.00;91207.78;5110788;28;20031;-64
2021/12/17 10:28:52;;;;;;;10.50;8.23;;;;;;;1.91;100.00;91201.94;5111661;28;20068;-65
2021/12/17 10:31:17;;;;;;;10.13;7.68;;;;;;;1.72;100.00;91201.50;5111733;28;20515;-65
2021/12/17 10:33:49;;;;;;;8.77;7.05;;;;;;;1.72;100.00;91205.94;5111565;28;20023;-65
2021/12/17 10:36:15;;;;;;;12.25;8.15;;;;;;;1.67;100.00;91198.03;5111599;28;20048;-65
2021/12/17 10:38:44;;;;;;;9.57;7.22;;;;;;;1.78;100.00;91189.22;5111463;28;20111;-65
2021/12/17 10:41:14;;;;;;;7.15;6.20;;;;;;;1.99;100.00;91177.06;5111679;28;20161;-65
2021/12/17 10:43:47;;;;;;;7.40;5.93;;;;;;;2.05;100.00;91174.25;5111581;28;20481;-65
2021/12/17 10:54:13;;;;;;;6.38;5.55;;;;;;;2.43;100.00;91148.78;5111298;28;20095;-65
2021/12/17 10:56:46;;;;;;;13.52;6.55;;;;;;;2.69;100.00;91150.50;5111206;28;20027;-65
2021/12/17 10:59:14;;;;;;;5.90;4.90;;;;;;;2.84;100.00;91154.22;5111316;28;20028;-65
2021/12/17 11:01:54;;;;;;;4.78;3.88;;;;;;;3.05;100.00;91149.84;5111275;28;20144;-65
2021/12/17 11:04:24;;;;;;;6.78;5.10;;;;;;;3.39;100.00;91152.84;5111616;28;20019;-65
2021/12/17 11:06:59;;;;;;;10.57;7.65;;;;;;;3.26;100.00;91140.97;5111258;28;20039;-65
2021/12/17 11:09:34;;;;;;;5.47;4.95;;;;;;;3.38;100.00;91117.09;5111211;28;20019;-65
2021/12/17 11:12:06;;;;;;;5.40;4.60;;;;;;;3.10;100.00;91121.75;5111516;28;20078;-65
2021/12/17 11:14:32;;;;;;;4.97;3.92;;;;;;;3.09;100.00;91120.16;5111020;28;20043;-65
2021/12/17 11:16:58;;;;;;;4.88;4.22;;;;;;;3.24;100.00;91101.00;5111151;28;20457;-65
2021/12/17 11:19:24;;;;;;;5.05;4.25;;;;;;;3.53;100.00;91096.06;5111018;28;20019;-65
2021/12/17 11:21:49;;;;;;;3.45;3.15;;;;;;;3.64;100.00;91095.03;5109701;28;20111;-65
2021/12/17 11:24:18;;;;;;;4.15;3.53;;;;;;;3.69;100.00;91097.66;5111154;28;20074;-66
2021/12/17 11:26:47;;;;;;;3.47;2.97;;;;;;;3.81;100.00;91113.19;5111165;28;20019;-65
2021/12/17 11:29:16;;;;;;;11.23;8.60;;;;;;;3.20;100.00;91106.00;5110937;28;20063;-65
2021/12/17 11:31:42;;;;;;;6.53;5.38;;;;;;;3.12;100.00;91113.59;5111067;28;20038;-65
2021/12/17 11:34:07;;;;;;;6.28;4.80;;;;;;;2.83;100.00;91121.13;5111059;28;20106;-65
2021/12/17 11:36:33;;;;;;;8.15;5.70;;;;;;;2.55;100.00;91109.97;5112386;28;20519;-65
2021/12/17 11:39:10;;;;;;;9.52;6.90;;;;;;;2.49;100.00;91115.44;5114930;28;20027;-64
2021/12/17 11:41:53;;;;;;;9.70;6.78;;;;;;;2.41;100.00;91108.84;5115099;27;20085;-64
2021/12/17 11:44:26;;;;;;;10.20;6.55;;;;;;;2.37;100.00;91097.28;5114929;28;20024;-64
2021/12/17 11:47:04;;;;;;;7.35;5.57;;;;;;;2.40;100.00;91100.19;5114944;28;20028;-65
2021/12/17 11:49:44;;;;;;;11.45;7.22;;;;;;;2.48;100.00;91093.66;5114659;28;20108;-65
2021/12/17 11:52:12;;;;;;;11.45;6.82;;;;;;;2.39;100.00;91096.00;5114742;28;20050;-65
2021/12/17 11:54:38;;;;;;;8.57;6.20;;;;;;;2.38;100.00;91091.78;5114589;28;20027;-65
2021/12/17 11:57:08;;;;;;;10.52;7.00;;;;;;;2.41;100.00;91085.22;5114609;28;20016;-65
2021/12/17 11:59:45;;;;;;;15.40;9.45;;;;;;;2.42;100.00;91081.56;5114482;28;20066;-65
2021/12/17 12:02:16;;;;;;;11.98;9.00;;;;;;;2.53;100.00;91083.19;5114265;28;20035;-65
2021/12/17 12:04:51;;;;;;;10.05;8.07;;;;;;;2.47;100.00;91070.28;5114528;28;20024;-65
2021/12/17 12:07:29;;;;;;;8.32;7.22;;;;;;;2.43;100.00;91054.25;5114475;28;20058;-65
2021/12/17 12:09:58;;;;;;;7.18;5.78;;;;;;;2.60;100.00;91057.47;5112993;28;20825;-64
2021/12/17 12:12:27;;;;;;;5.57;5.07;;;;;;;2.95;100.00;91048.13;5114433;28;20098;-64
2021/12/17 12:14:53;;;;;;;6.95;5.55;;;;;;;3.22;100.00;91053.97;5114150;28;20050;-65
2021/12/17 12:17:56;;;;;;;8.27;6.15;;;;;;;2.93;100.00;91052.84;5114320;28;20485;-65
2021/12/17 12:20:52;;;;;;;7.43;5.88;;;;;;;2.89;100.00;91041.28;5114202;28;20031;-65
2021/12/17 12:23:34;;;;;;;6.95;4.75;;;;;;;2.85;100.00;91042.84;5114110;27;20173;-65
2021/12/17 12:26:08;;;;;;;4.20;3.80;;;;;;;2.79;100.00;91043.88;5114177;28;20027;-64
2021/12/17 12:31:36;;;;;;;6.97;4.13;;;;;;;2.40;100.00;91031.16;5114282;28;20052;-65
2021/12/17 12:34:05;;;;;;;4.45;3.63;;;;;;;2.15;100.00;91031.00;5107599;28;20039;-65
2021/12/17 12:36:50;;;;;;;5.57;4.38;;;;;;;2.14;100.00;91038.09;5113930;28;20039;-65
2021/12/17 12:39:56;;;;;;;5.53;4.15;;;;;;;2.01;100.00;91043.78;5112475;28;20172;-65
2021/12/17 12:42:35;;;;;;;5.72;4.65;;;;;;;1.72;100.00;91045.97;5113834;28;20530;-66
2021/12/17 12:45:03;;;;;;;5.35;4.25;;;;;;;1.65;100.00;91037.53;5113677;28;20497;-65
2021/12/17 12:47:34;;;;;;;6.57;5.68;;;;;;;1.65;100.00;91042.78;5113344;28;20020;-65
2021/12/17 12:50:10;;;;;;;9.00;7.32;;;;;;;1.57;100.00;91041.41;5113745;28;20019;-64
2021/12/17 12:52:39;;;;;;;5.63;4.40;;;;;;;1.41;100.00;91019.53;5113115;28;20035;-64
2021/12/17 12:55:07;;;;;;;9.85;6.50;;;;;;;1.54;100.00;91033.25;5113509;28;20482;-64
2021/12/17 12:57:36;;;;;;;13.73;8.32;;;;;;;1.65;100.00;91034.91;5113328;28;20509;-65
2021/12/17 13:00:11;;;;;;;14.88;10.55;;;;;;;1.75;100.00;91027.13;5113254;28;20115;-65
2021/12/17 13:02:39;;;;;;;6.10;5.50;;;;;;;1.88;100.00;91018.78;5113384;28;20028;-65
2021/12/17 13:05:06;;;;;;;3.75;3.45;;;;;;;2.02;100.00;91014.69;5113423;28;20028;-65
2021/12/17 13:07:48;;;;;;;4.68;4.18;;;;;;;2.06;100.00;91013.16;5113413;28;20133;-65
2021/12/17 13:10:19;;;;;;;4.72;4.15;;;;;;;2.00;100.00;91022.03;5113331;28;20028;-65
2021/12/17 13:13:07;;;;;;;4.28;3.45;;;;;;;2.00;100.00;91016.78;5113232;28;20073;-64
2021/12/17 13:23:55;;;;;;;11.70;7.63;;;;;;;1.59;100.00;91018.38;5113187;28;20132;-64
2021/12/17 13:26:25;;;;;;;4.25;3.40;;;;;;;1.54;100.00;91018.31;5113018;28;20504;-64
2021/12/17 13:29:12;;;;;;;7.40;3.97;;;;;;;1.48;100.00;91012.25;5112768;28;20223;-65
2021/12/17 13:32:10;;;;;;;6.78;4.70;;;;;;;1.32;100.00;91013.19;5112748;28;20028;-65
2021/12/17 13:34:56;;;;;;;4.25;2.95;;;;;;;1.40;100.00;91001.44;5112836;28;20126;-65
2021/12/17 13:37:24;;;;;;;4.43;3.00;;;;;;;1.40;100.00;91009.31;5112705;28;20104;-65
2021/12/17 13:39:58;;;;;;;8.07;4.97;;;;;;;1.38;100.00;91001.69;5112817;28;20030;-64
2021/12/17 13:42:28;;;;;;;5.38;4.55;;;;;;;1.35;100.00;90991.72;5112485;28;20028;-65
2021/12/17 13:45:06;;;;;;;9.18;5.63;;;;;;;1.40;100.00;90989.13;5112555;28;20031;-65
2021/12/17 13:47:37;;;;;;;5.60;4.25;;;;;;;1.51;100.00;90982.13;5112515;28;20464;-65
2021/12/17 13:50:10;;;;;;;20.42;15.23;;;;;;;1.70;100.00;90966.78;5112292;28;20023;-65
2021/12/17 13:52:43;;;;;;;4.60;3.90;;;;;;;1.87;100.00;90967.38;5112654;28;20066;-65
2021/12/17 13:55:12;;;;;;;5.05;3.85;;;;;;;2.01;100.00;90979.00;5112403;28;20038;-65
2021/12/17 13:57:41;;;;;;;3.60;2.78;;;;;;;2.17;100.00;90997.44;5112230;28;20036;-64
2021/12/17 14:00:08;;;;;;;6.07;4.30;;;;;;;2.30;100.00;91004.84;5112045;28;20103;-64
2021/12/17 14:02:36;;;;;;;8.23;5.53;;;;;;;2.36;100.00;91003.81;5112047;28;20027;-64
2021/12/17 14:05:10;;;;;;;9.68;5.43;;;;;;;2.17;100.00;91011.34;5112360;28;20354;-64
2021/12/17 14:07:37;;;;;;;4.43;2.72;;;;;;;1.98;100.00;90997.09;5112004;28;20096;-64
2021/12/17 14:10:14;;;;;;;11.52;7.22;;;;;;;1.77;100.00;91007.47;5112009;28;20027;-65
2021/12/17 14:12:41;;;;;;;2.53;2.30;;;;;;;1.64;100.00;90997.44;5112081;28;20478;-64
2021/12/17 14:15:11;;;;;;;4.75;3.10;;;;;;;1.50;100.00;90988.41;5110500;28;20126;-64
2021/12/17 14:17:46;;;;;;;4.38;3.78;;;;;;;1.52;100.00;90985.53;5111770;28;20566;-65
2021/12/17 14:20:16;;;;;;;4.38;3.60;;;;;;;1.36;100.00;90993.28;5111719;28;20028;-64
2021/12/17 14:22:44;;;;;;;3.10;2.80;;;;;;;1.20;100.00;90995.00;5111852;28;20054;-65
2021/12/17 14:25:24;;;;;;;4.25;3.65;;;;;;;1.14;100.00;91010.97;5111737;28;20031;-65
2021/12/17 14:27:51;;;;;;;9.65;6.18;;;;;;;1.07;100.00;91010.34;5111591;28;20027;-65
2021/12/17 14:30:28;;;;;;;5.57;3.78;;;;;;;1.02;100.00;91007.69;5111643;28;20055;-65
2021/12/17 14:32:54;;;;;;;27.40;16.02;;;;;;;0.99;100.00;91018.69;5111660;28;20028;-65
2021/12/17 14:35:50;;;;;;;2.80;2.60;;;;;;;0.95;100.00;91017.56;5110325;28;20042;-65
2021/12/17 14:38:17;;;;;;;17.10;10.93;;;;;;;0.85;100.00;91013.84;5111493;28;20027;-65
2021/12/17 14:40:53;;;;;;;21.00;16.65;;;;;;;0.81;100.00;91014.59;5111532;28;20467;-64
2021/12/17 14:43:46;;;;;;;11.05;9.52;;;;;;;0.78;100.00;91013.22;5111416;28;20080;-65
2021/12/17 14:46:24;;;;;;;7.77;4.57;;;;;;;0.74;100.00;91019.22;5111434;28;20110;-64
2021/12/17 15:00:33;;;;;;;5.97;4.93;;;;;;;0.63;100.00;91022.75;5111218;28;20042;-64
2021/12/17 15:03:08;;;;;;;5.38;4.15;;;;;;;0.56;100.00;91015.13;5111160;28;20106;-65